createdAt,value
2022-09-30T00:01:29.322Z,11.03
2022-09-30T00:03:32.221Z,11.20
2022-09-30T00:05:34.562Z,11.67
2022-09-30T00:07:38.229Z,11.63
2022-09-30T00:09:40.675Z,11.23
2022-09-30T00:11:43.597Z,11.30
2022-09-30T00:13:46.316Z,11.23
2022-09-30T00:15:48.738Z,11.03
2022-09-30T00:17:51.118Z,10.60
2022-09-30T00:19:53.827Z,10.00
2022-09-30T00:21:56.198Z,10.40
2022-09-30T00:23:59.821Z,10.63
2022-09-30T00:26:02.648Z,11.00
2022-09-30T00:28:07.878Z,10.23
2022-09-30T00:30:10.542Z,11.30
2022-09-30T00:32:12.951Z,11.30
2022-09-30T00:34:15.289Z,10.60
2022-09-30T00:36:18.170Z,11.07
2022-09-30T00:38:20.524Z,10.00
2022-09-30T00:40:24.165Z,10.50
2022-09-30T00:42:29.979Z,11.50
2022-09-30T00:44:47.887Z,10.27
2022-09-30T00:46:50.278Z,9.17
2022-09-30T00:48:53.967Z,10.07
2022-09-30T00:50:56.414Z,9.37
2022-09-30T00:53:00.819Z,9.40
2022-09-30T00:55:04.557Z,10.53
2022-09-30T00:57:08.241Z,10.60
2022-09-30T00:59:11.423Z,10.23
2022-09-30T01:01:15.066Z,9.97
2022-09-30T01:03:18.006Z,9.93
2022-09-30T01:05:20.355Z,10.13
2022-09-30T01:07:23.078Z,10.00
2022-09-30T01:09:25.867Z,10.20
2022-09-30T01:11:28.402Z,9.47
2022-09-30T01:13:32.475Z,10.00
2022-09-30T01:15:39.201Z,10.07
2022-09-30T01:17:44.932Z,9.67
2022-09-30T01:19:58.274Z,9.87
2022-09-30T01:22:02.094Z,9.43
2022-09-30T01:24:09.873Z,9.30
2022-09-30T01:26:19.931Z,9.20
2022-09-30T01:28:27.279Z,10.20
2022-09-30T01:30:43.166Z,9.17
2022-09-30T01:32:53.708Z,9.90
2022-09-30T01:35:00.023Z,9.47
2022-09-30T01:37:04.687Z,10.10
2022-09-30T01:39:11.330Z,9.80
2022-09-30T01:41:16.901Z,9.13
2022-09-30T01:43:21.907Z,9.83
2022-09-30T01:45:26.498Z,9.23
2022-09-30T01:47:30.387Z,10.10
2022-09-30T01:49:34.253Z,9.90
2022-09-30T01:51:38.453Z,9.10
2022-09-30T01:53:41.623Z,9.27
2022-09-30T01:55:45.921Z,9.10
2022-09-30T01:57:50.682Z,9.63
2022-09-30T01:59:54.422Z,9.53
2022-09-30T02:01:57.756Z,9.07
2022-09-30T02:04:02.634Z,8.70
2022-09-30T02:06:06.158Z,9.37
2022-09-30T02:08:09.501Z,8.63
2022-09-30T02:10:13.151Z,8.60
2022-09-30T02:12:16.849Z,9.80
2022-09-30T02:14:20.502Z,9.47
2022-09-30T02:16:24.603Z,9.30
2022-09-30T02:18:28.013Z,7.73
2022-09-30T02:20:32.501Z,9.10
2022-09-30T02:22:40.681Z,8.40
2022-09-30T02:24:43.908Z,9.03
2022-09-30T02:26:47.182Z,9.20
2022-09-30T02:28:50.932Z,9.77
2022-09-30T02:30:54.885Z,8.23
2022-09-30T02:32:57.843Z,9.17
2022-09-30T02:35:01.311Z,8.63
2022-09-30T02:37:06.269Z,9.60
2022-09-30T02:39:11.274Z,9.53
2022-09-30T02:41:15.075Z,8.83
2022-09-30T02:43:17.548Z,9.07
2022-09-30T02:45:20.896Z,8.67
2022-09-30T02:47:27.033Z,9.33
2022-09-30T02:49:30.269Z,8.70
2022-09-30T02:51:34.844Z,7.83
2022-09-30T02:53:39.153Z,8.53
2022-09-30T02:55:43.967Z,8.60
2022-09-30T02:57:49.901Z,8.60
2022-09-30T02:59:52.645Z,8.40
2022-09-30T03:01:56.174Z,8.10
2022-09-30T03:03:58.945Z,7.57
2022-09-30T03:06:01.324Z,7.80
2022-09-30T03:08:03.999Z,8.90
2022-09-30T03:10:14.502Z,9.20
2022-09-30T03:12:20.629Z,8.97
2022-09-30T03:14:27.738Z,8.07
2022-09-30T03:16:33.067Z,8.77
2022-09-30T03:18:49.221Z,7.87
2022-09-30T03:20:54.081Z,8.43
2022-09-30T03:23:01.752Z,8.27
2022-09-30T03:25:09.598Z,8.70
2022-09-30T03:27:16.913Z,7.97
2022-09-30T03:29:20.967Z,8.53
2022-09-30T03:31:25.737Z,7.63
2022-09-30T03:33:29.552Z,8.07
2022-09-30T03:35:33.290Z,8.00
2022-09-30T03:37:37.491Z,7.67
2022-09-30T03:39:43.876Z,8.00
2022-09-30T03:41:47.465Z,7.67
2022-09-30T03:43:52.131Z,7.90
2022-09-30T03:45:55.908Z,7.90
2022-09-30T03:47:58.729Z,7.10
2022-09-30T03:50:01.888Z,7.07
2022-09-30T03:52:06.126Z,7.60
2022-09-30T03:54:10.066Z,7.27
2022-09-30T03:56:12.502Z,7.70
2022-09-30T03:58:15.040Z,7.77
2022-09-30T04:00:19.973Z,7.30
2022-09-30T04:02:22.384Z,7.87
2022-09-30T04:04:24.848Z,7.50
2022-09-30T04:06:27.670Z,7.70
2022-09-30T04:08:33.772Z,6.57
2022-09-30T04:10:36.468Z,7.50
2022-09-30T04:12:38.846Z,6.63
2022-09-30T04:14:41.660Z,7.20
2022-09-30T04:16:45.342Z,7.47
2022-09-30T04:18:47.723Z,6.67
2022-09-30T04:20:50.118Z,7.10
2022-09-30T04:22:52.842Z,6.47
2022-09-30T04:24:55.329Z,6.87
2022-09-30T04:26:57.898Z,6.77
2022-09-30T04:29:00.448Z,6.60
2022-09-30T04:31:02.934Z,7.40
2022-09-30T04:33:06.679Z,6.80
2022-09-30T04:35:09.146Z,6.63
2022-09-30T04:37:12.110Z,7.10
2022-09-30T04:39:14.522Z,6.50
2022-09-30T04:41:18.185Z,6.00
2022-09-30T04:43:22.340Z,6.33
2022-09-30T04:45:25.510Z,6.20
2022-09-30T04:47:27.924Z,6.80
2022-09-30T04:49:31.602Z,6.83
2022-09-30T04:51:35.893Z,6.47
2022-09-30T04:53:38.386Z,5.97
2022-09-30T04:55:40.782Z,6.50
2022-09-30T04:57:44.500Z,6.73
2022-09-30T04:59:47.318Z,6.10
2022-09-30T05:01:49.821Z,6.33
2022-09-30T05:03:53.662Z,5.80
2022-09-30T05:05:57.414Z,6.80
2022-09-30T05:08:01.184Z,6.90
2022-09-30T05:10:03.535Z,6.80
2022-09-30T05:12:05.978Z,6.40
2022-09-30T05:14:09.748Z,6.30
2022-09-30T05:16:14.278Z,6.83
2022-09-30T05:18:16.723Z,6.83
2022-09-30T05:20:21.263Z,6.77
2022-09-30T05:22:25.234Z,6.20
2022-09-30T05:24:30.033Z,6.00
2022-09-30T05:26:32.951Z,6.40
2022-09-30T05:28:35.315Z,6.63
2022-09-30T05:30:37.649Z,6.70
2022-09-30T05:32:40.694Z,7.07
2022-09-30T05:34:43.053Z,6.67
2022-09-30T05:36:45.464Z,6.90
2022-09-30T05:38:49.093Z,8.10
2022-09-30T05:40:52.485Z,6.67
2022-09-30T05:42:54.884Z,6.90
2022-09-30T05:44:57.281Z,7.03
2022-09-30T05:46:59.979Z,6.90
2022-09-30T05:49:02.822Z,6.80
2022-09-30T05:51:05.221Z,7.43
2022-09-30T05:53:07.598Z,7.10
2022-09-30T05:55:11.385Z,6.27
2022-09-30T05:57:14.564Z,6.80
2022-09-30T05:59:16.907Z,7.47
2022-09-30T06:01:19.257Z,7.20
2022-09-30T06:03:21.993Z,7.80
2022-09-30T06:05:24.495Z,7.70
2022-09-30T06:07:26.867Z,7.87
2022-09-30T06:09:32.517Z,8.13
2022-09-30T06:11:36.822Z,7.43
2022-09-30T06:13:39.685Z,7.23
2022-09-30T06:15:42.453Z,7.70
2022-09-30T06:17:45.026Z,7.90
2022-09-30T06:19:47.393Z,7.63
2022-09-30T06:21:49.746Z,7.23
2022-09-30T06:23:52.571Z,8.27
2022-09-30T06:25:55.171Z,7.50
2022-09-30T06:27:58.899Z,6.90
2022-09-30T06:30:01.471Z,8.07
2022-09-30T06:32:04.319Z,6.93
2022-09-30T06:34:06.795Z,8.60
2022-09-30T06:36:09.683Z,8.17
2022-09-30T06:38:12.151Z,8.10
2022-09-30T06:40:14.898Z,7.50
2022-09-30T06:42:17.306Z,8.50
2022-09-30T06:44:21.449Z,7.87
2022-09-30T06:46:30.340Z,8.43
2022-09-30T06:48:38.592Z,7.67
2022-09-30T06:50:44.599Z,7.73
2022-09-30T06:52:51.493Z,9.07
2022-09-30T06:54:56.490Z,8.23
2022-09-30T06:56:58.915Z,8.90
2022-09-30T06:59:01.722Z,9.23
2022-09-30T07:01:05.920Z,7.60
2022-09-30T07:03:09.964Z,7.90
2022-09-30T07:05:12.983Z,8.00
2022-09-30T07:07:16.130Z,8.10
2022-09-30T07:09:18.874Z,8.00
2022-09-30T07:11:21.314Z,7.80
2022-09-30T07:13:23.755Z,7.73
2022-09-30T07:15:26.656Z,7.30
2022-09-30T07:17:30.412Z,8.10
2022-09-30T07:19:34.354Z,8.30
2022-09-30T07:21:37.226Z,7.20
2022-09-30T07:23:41.065Z,8.03
2022-09-30T07:25:50.386Z,7.07
2022-09-30T07:27:54.816Z,7.60
2022-09-30T07:30:08.863Z,7.20
2022-09-30T07:32:12.848Z,7.60
2022-09-30T07:34:16.589Z,7.50
2022-09-30T07:36:19.251Z,7.47
2022-09-30T07:38:21.666Z,6.70
2022-09-30T07:40:24.205Z,7.23
2022-09-30T07:42:31.051Z,6.77
2022-09-30T07:44:33.528Z,8.10
2022-09-30T07:46:38.568Z,7.77
2022-09-30T07:48:44.646Z,7.60
2022-09-30T07:50:55.845Z,7.07
2022-09-30T07:52:58.217Z,7.30
2022-09-30T07:55:00.617Z,8.00
2022-09-30T07:57:10.102Z,7.30
2022-09-30T07:59:13.357Z,7.57
2022-09-30T08:01:16.131Z,7.30
2022-09-30T08:03:18.557Z,7.63
2022-09-30T08:05:21.343Z,7.73
2022-09-30T08:07:25.241Z,6.73
2022-09-30T08:09:28.298Z,7.50
2022-09-30T08:11:33.458Z,7.20
2022-09-30T08:13:36.169Z,7.17
2022-09-30T08:15:38.538Z,7.23
2022-09-30T08:17:40.903Z,7.20
2022-09-30T08:19:44.687Z,6.50
2022-09-30T08:21:47.515Z,6.70
2022-09-30T08:23:51.183Z,7.30
2022-09-30T08:25:53.577Z,6.50
2022-09-30T08:27:55.959Z,6.90
2022-09-30T08:30:02.317Z,6.57
2022-09-30T08:32:06.894Z,7.23
2022-09-30T08:34:09.308Z,6.40
2022-09-30T08:36:11.988Z,6.93
2022-09-30T08:38:16.671Z,6.53
2022-09-30T08:40:21.524Z,6.40
2022-09-30T08:42:49.116Z,6.80
2022-09-30T08:44:49.870Z,7.00
2022-09-30T08:46:58.406Z,6.63
2022-09-30T08:49:03.512Z,6.47
2022-09-30T08:51:08.541Z,6.27
2022-09-30T08:53:11.931Z,6.70
2022-09-30T08:55:17.202Z,6.63
2022-09-30T08:57:20.920Z,6.40
2022-09-30T08:59:27.268Z,7.90
2022-09-30T09:01:30.911Z,7.73
2022-09-30T09:03:34.176Z,6.60
2022-09-30T09:05:51.543Z,7.13
2022-09-30T09:07:56.516Z,7.00
2022-09-30T09:10:02.057Z,7.23
2022-09-30T09:12:08.835Z,7.00
2022-09-30T09:14:14.323Z,8.07
2022-09-30T09:16:18.219Z,7.20
2022-09-30T09:18:25.245Z,7.20
2022-09-30T09:20:29.935Z,8.07
2022-09-30T09:22:32.611Z,7.67
2022-09-30T09:24:37.738Z,7.50
2022-09-30T09:26:40.407Z,7.07
2022-09-30T09:28:43.606Z,7.80
2022-09-30T09:30:49.473Z,7.23
2022-09-30T09:32:53.153Z,6.90
2022-09-30T09:34:56.654Z,7.40
2022-09-30T09:37:02.807Z,7.50
2022-09-30T09:39:09.240Z,7.70
2022-09-30T09:41:15.721Z,6.80
2022-09-30T09:43:20.318Z,6.83
2022-09-30T09:45:24.807Z,7.47
2022-09-30T09:47:28.543Z,6.27
2022-09-30T09:49:31.691Z,6.33
2022-09-30T09:51:34.760Z,7.97
2022-09-30T09:53:39.532Z,7.10
2022-09-30T09:55:41.935Z,7.37
2022-09-30T09:57:44.303Z,7.63
2022-09-30T09:59:55.581Z,7.57
2022-09-30T10:01:58.049Z,7.50
2022-09-30T10:04:10.830Z,7.47
2022-09-30T10:06:13.550Z,7.77
2022-09-30T10:08:16.681Z,7.87
2022-09-30T10:10:23.550Z,7.43
2022-09-30T10:12:29.382Z,8.10
2022-09-30T10:14:31.831Z,7.77
2022-09-30T10:16:35.834Z,8.50
2022-09-30T10:18:38.300Z,8.80
2022-09-30T10:20:41.944Z,8.20
2022-09-30T10:22:44.364Z,8.37
2022-09-30T10:24:47.186Z,9.30
2022-09-30T10:26:49.594Z,9.00
2022-09-30T10:28:52.451Z,9.20
2022-09-30T10:30:56.436Z,9.10
2022-09-30T10:32:59.124Z,9.40
2022-09-30T10:35:02.842Z,10.20
2022-09-30T10:37:10.066Z,9.50
2022-09-30T10:39:19.919Z,9.70
2022-09-30T10:41:25.849Z,9.17
2022-09-30T10:43:29.973Z,9.40
2022-09-30T10:45:33.309Z,9.60
2022-09-30T10:47:37.359Z,9.90
2022-09-30T10:49:41.175Z,9.80
2022-09-30T10:51:43.576Z,9.60
2022-09-30T10:53:47.671Z,10.60
2022-09-30T10:55:50.052Z,10.77
2022-09-30T10:57:53.129Z,10.20
2022-09-30T10:59:56.229Z,10.77
2022-09-30T11:02:00.913Z,9.97
2022-09-30T11:04:05.842Z,10.80
2022-09-30T11:06:08.434Z,10.47
2022-09-30T11:08:11.790Z,11.20
2022-09-30T11:10:21.774Z,10.90
2022-09-30T11:12:25.792Z,10.40
2022-09-30T11:14:30.432Z,10.67
2022-09-30T11:16:34.660Z,10.57
2022-09-30T11:18:38.875Z,11.37
2022-09-30T11:20:42.181Z,11.37
2022-09-30T11:22:46.615Z,11.17
2022-09-30T11:24:49.548Z,11.10
2022-09-30T11:26:55.031Z,11.43
2022-09-30T11:29:01.599Z,11.17
2022-09-30T11:31:07.316Z,11.50
2022-09-30T11:33:17.987Z,10.60
2022-09-30T11:35:25.000Z,11.90
2022-09-30T11:37:30.396Z,10.80
2022-09-30T11:39:37.474Z,11.00
2022-09-30T11:41:40.170Z,11.70
2022-09-30T11:43:46.480Z,10.50
2022-09-30T11:45:57.408Z,11.30
2022-09-30T11:48:07.672Z,10.90
2022-09-30T11:50:18.945Z,11.00
2022-09-30T11:52:31.279Z,10.93
2022-09-30T11:54:37.877Z,10.50
2022-09-30T11:56:42.745Z,12.77
2022-09-30T11:58:46.776Z,11.10
2022-09-30T12:00:50.658Z,11.73
2022-09-30T12:02:58.087Z,12.20
2022-09-30T12:05:00.754Z,11.70
2022-09-30T12:07:05.258Z,12.27
2022-09-30T12:09:11.110Z,12.17
2022-09-30T12:11:15.738Z,11.80
2022-09-30T12:13:19.107Z,12.13
2022-09-30T12:15:24.487Z,11.50
2022-09-30T12:17:27.905Z,11.43
2022-09-30T12:19:31.663Z,12.00
2022-09-30T12:21:35.501Z,12.47
2022-09-30T12:23:39.547Z,11.57
2022-09-30T12:25:50.546Z,12.00
2022-09-30T12:27:53.411Z,12.60
2022-09-30T12:30:08.458Z,13.20
2022-09-30T12:32:19.688Z,12.23
2022-09-30T12:34:25.693Z,13.10
2022-09-30T12:36:33.021Z,11.27
2022-09-30T12:38:46.821Z,12.60
2022-09-30T12:40:52.986Z,12.10
2022-09-30T12:43:08.463Z,13.73
2022-09-30T12:45:21.486Z,12.30
2022-09-30T12:47:28.339Z,12.93
2022-09-30T12:49:30.778Z,11.90
2022-09-30T12:51:33.829Z,13.30
2022-09-30T12:53:36.426Z,12.60
2022-09-30T12:55:39.138Z,12.23
2022-09-30T12:57:42.003Z,12.33
2022-09-30T12:59:46.259Z,13.17
2022-09-30T13:01:49.144Z,13.07
2022-09-30T13:03:53.584Z,13.20
2022-09-30T13:05:59.543Z,12.43
2022-09-30T13:08:22.744Z,12.00
2022-09-30T13:10:34.257Z,12.70
2022-09-30T13:12:41.749Z,12.47
2022-09-30T13:14:44.652Z,12.43
2022-09-30T13:17:01.055Z,13.13
2022-09-30T13:19:05.461Z,12.07
2022-09-30T13:21:18.257Z,13.10
2022-09-30T13:23:36.359Z,13.10
2022-09-30T13:25:54.014Z,13.33
2022-09-30T13:28:08.586Z,13.70
2022-09-30T13:30:24.292Z,12.03
2022-09-30T13:32:31.607Z,10.53
2022-09-30T13:34:36.656Z,11.83
2022-09-30T13:36:40.056Z,12.50
2022-09-30T13:38:42.982Z,12.40
2022-09-30T13:41:03.480Z,13.07
2022-09-30T13:43:06.384Z,12.57
2022-09-30T13:45:13.282Z,13.53
2022-09-30T13:47:18.874Z,13.63
2022-09-30T13:49:25.616Z,12.57
2022-09-30T13:51:30.752Z,13.50
2022-09-30T13:53:34.257Z,12.67
2022-09-30T13:55:38.315Z,12.60
2022-09-30T13:57:43.554Z,11.70
2022-09-30T13:59:49.252Z,12.40
2022-09-30T14:01:56.583Z,11.23
2022-09-30T14:04:06.454Z,12.00
2022-09-30T14:06:12.218Z,12.83
2022-09-30T14:08:22.494Z,12.73
2022-09-30T14:10:32.319Z,11.93
2022-09-30T14:12:38.554Z,12.70
2022-09-30T14:14:49.145Z,13.17
2022-09-30T14:17:00.958Z,12.73
2022-09-30T14:19:06.762Z,12.40
2022-09-30T14:21:14.083Z,12.00
2022-09-30T14:23:17.677Z,12.93
2022-09-30T14:25:21.794Z,13.40
2022-09-30T14:27:31.337Z,13.93
2022-09-30T14:29:36.987Z,14.03
2022-09-30T14:31:44.601Z,14.07
2022-09-30T14:33:48.661Z,14.67
2022-09-30T14:35:52.833Z,16.03
2022-09-30T14:37:56.097Z,14.27
2022-09-30T14:39:58.666Z,15.20
2022-09-30T14:42:03.431Z,14.83
2022-09-30T14:44:07.880Z,14.20
2022-09-30T14:46:14.714Z,14.60
2022-09-30T14:48:18.093Z,15.57
2022-09-30T14:50:21.059Z,15.30
2022-09-30T14:52:35.269Z,15.30
2022-09-30T14:54:37.838Z,14.00
2022-09-30T14:56:41.349Z,14.50
2022-09-30T14:58:45.130Z,13.73
2022-09-30T15:00:48.423Z,14.70
2022-09-30T15:02:51.979Z,14.60
2022-09-30T15:04:59.260Z,14.30
2022-09-30T15:07:04.338Z,15.70
2022-09-30T15:09:07.499Z,14.53
2022-09-30T15:11:09.959Z,14.10
2022-09-30T15:13:12.503Z,14.67
2022-09-30T15:15:28.101Z,14.80
2022-09-30T15:17:31.004Z,12.90
2022-09-30T15:19:34.907Z,13.80
2022-09-30T15:21:38.060Z,13.97
2022-09-30T15:23:41.312Z,14.10
2022-09-30T15:25:43.780Z,13.50
2022-09-30T15:27:46.363Z,14.50
2022-09-30T15:29:55.638Z,13.90
2022-09-30T15:32:01.372Z,13.00
2022-09-30T15:34:04.470Z,13.40
2022-09-30T15:36:07.394Z,13.90
2022-09-30T15:38:11.267Z,13.50
2022-09-30T15:40:24.927Z,14.80
2022-09-30T15:42:30.244Z,12.90
2022-09-30T15:44:37.958Z,13.07
2022-09-30T15:46:43.810Z,13.10
2022-09-30T15:48:47.554Z,13.00
2022-09-30T15:50:50.246Z,13.57
2022-09-30T15:52:55.686Z,12.97
2022-09-30T15:54:58.413Z,14.20
2022-09-30T15:57:03.709Z,12.63
2022-09-30T15:59:06.350Z,12.80
2022-09-30T16:01:11.592Z,12.10
2022-09-30T16:03:23.015Z,12.43
2022-09-30T16:05:27.207Z,12.27
2022-09-30T16:07:30.898Z,11.80
2022-09-30T16:09:34.346Z,12.30
2022-09-30T16:11:37.640Z,11.73
2022-09-30T16:13:42.773Z,12.00
2022-09-30T16:15:45.606Z,12.57
2022-09-30T16:17:48.310Z,12.80
2022-09-30T16:19:51.070Z,11.97
2022-09-30T16:21:54.951Z,12.10
2022-09-30T16:23:57.843Z,11.20
2022-09-30T16:26:12.295Z,11.10
2022-09-30T16:28:15.241Z,11.83
2022-09-30T16:30:19.007Z,11.47
2022-09-30T16:32:21.498Z,11.07
2022-09-30T16:34:24.422Z,11.47
2022-09-30T16:36:29.776Z,11.63
2022-09-30T16:38:33.693Z,11.37
2022-09-30T16:40:37.974Z,12.00
2022-09-30T16:42:40.510Z,11.47
2022-09-30T16:44:45.240Z,10.50
2022-09-30T16:46:47.714Z,11.63
2022-09-30T16:48:50.192Z,11.10
2022-09-30T16:50:54.170Z,11.20
2022-09-30T16:52:57.117Z,10.70
2022-09-30T16:55:00.909Z,10.50
2022-09-30T16:57:03.374Z,10.40
2022-09-30T16:59:07.485Z,11.03
2022-09-30T17:01:12.335Z,11.37
2022-09-30T17:03:15.516Z,10.10
2022-09-30T17:05:19.804Z,11.10
2022-09-30T17:07:22.250Z,10.43
2022-09-30T17:09:24.718Z,10.27
2022-09-30T17:11:29.861Z,10.60
2022-09-30T17:13:32.903Z,10.00
2022-09-30T17:15:36.129Z,10.03
2022-09-30T17:17:38.646Z,10.07
2022-09-30T17:19:41.750Z,10.10
2022-09-30T17:21:44.202Z,10.03
2022-09-30T17:23:46.678Z,9.80
2022-09-30T17:25:49.483Z,9.30
2022-09-30T17:27:54.272Z,10.00
2022-09-30T17:30:06.624Z,8.97
2022-09-30T17:32:09.170Z,8.90
2022-09-30T17:34:12.045Z,9.37
2022-09-30T17:36:15.031Z,9.50
2022-09-30T17:38:17.538Z,10.00
2022-09-30T17:40:32.702Z,9.60
2022-09-30T17:42:49.101Z,9.77
2022-09-30T17:44:55.870Z,9.23
2022-09-30T17:47:01.161Z,8.80
2022-09-30T17:49:04.056Z,8.80
2022-09-30T17:51:07.871Z,8.93
2022-09-30T17:53:12.981Z,8.90
2022-09-30T17:55:15.697Z,8.70
2022-09-30T17:57:18.367Z,9.47
2022-09-30T17:59:21.986Z,8.77
2022-09-30T18:01:31.111Z,9.10
2022-09-30T18:03:33.878Z,8.67
2022-09-30T18:05:37.338Z,9.50
2022-09-30T18:07:41.858Z,9.60
2022-09-30T18:09:44.395Z,9.47
2022-09-30T18:11:46.969Z,9.70
2022-09-30T18:13:58.123Z,10.27
2022-09-30T18:16:05.921Z,9.03
2022-09-30T18:18:09.936Z,8.73
2022-09-30T18:20:12.853Z,8.83
2022-09-30T18:22:16.284Z,8.97
2022-09-30T18:24:39.097Z,8.50
2022-09-30T18:26:43.323Z,8.33
2022-09-30T18:28:46.003Z,8.77
2022-09-30T18:30:48.489Z,8.50
2022-09-30T18:32:52.269Z,9.43
2022-09-30T18:34:56.665Z,8.87
2022-09-30T18:37:06.574Z,9.00
2022-09-30T18:39:09.054Z,8.30
2022-09-30T18:41:12.212Z,9.50
2022-09-30T18:43:15.265Z,9.00
2022-09-30T18:45:17.758Z,9.80
2022-09-30T18:47:20.296Z,10.13
2022-09-30T18:49:23.057Z,9.97
2022-09-30T18:51:27.192Z,10.30
2022-09-30T18:53:34.427Z,9.03
2022-09-30T18:55:38.127Z,10.20
2022-09-30T18:57:41.677Z,10.90
2022-09-30T18:59:46.858Z,10.60
2022-09-30T19:01:52.627Z,10.37
2022-09-30T19:03:55.227Z,10.50
2022-09-30T19:05:57.753Z,10.37
2022-09-30T19:08:02.572Z,10.10
2022-09-30T19:10:05.346Z,11.60
2022-09-30T19:12:07.818Z,10.57
2022-09-30T19:14:10.934Z,11.03
2022-09-30T19:16:13.979Z,10.20
2022-09-30T19:18:16.603Z,10.47
2022-09-30T19:20:19.932Z,11.10
2022-09-30T19:22:25.274Z,11.00
2022-09-30T19:24:29.288Z,11.63
2022-09-30T19:26:32.106Z,12.20
2022-09-30T19:28:38.312Z,11.00
2022-09-30T19:30:41.956Z,11.90
2022-09-30T19:32:44.421Z,11.47
2022-09-30T19:35:04.829Z,10.57
2022-09-30T19:37:22.488Z,12.47
2022-09-30T19:39:42.739Z,12.30
2022-09-30T19:41:49.560Z,12.17
2022-09-30T19:43:54.515Z,11.67
2022-09-30T19:45:59.753Z,12.60
2022-09-30T19:48:03.226Z,11.17
2022-09-30T19:50:06.823Z,12.80
2022-09-30T19:52:20.140Z,13.47
2022-09-30T19:54:39.416Z,13.30
2022-09-30T19:56:47.262Z,12.00
2022-09-30T19:58:50.249Z,13.00
2022-09-30T20:00:54.800Z,13.27
2022-09-30T20:02:59.763Z,13.80
2022-09-30T20:05:03.961Z,13.00
2022-09-30T20:07:07.663Z,14.17
2022-09-30T20:09:10.609Z,15.00
2022-09-30T20:11:13.857Z,14.40
2022-09-30T20:13:18.926Z,14.17
2022-09-30T20:15:33.052Z,14.13
2022-09-30T20:17:36.121Z,14.37
2022-09-30T20:19:39.714Z,14.73
2022-09-30T20:21:43.848Z,14.30
2022-09-30T20:23:52.784Z,14.00
2022-09-30T20:25:57.814Z,14.10
2022-09-30T20:28:04.134Z,14.47
2022-09-30T20:30:08.954Z,14.53
2022-09-30T20:32:13.515Z,14.93
2022-09-30T20:34:16.815Z,15.10
2022-09-30T20:36:20.001Z,15.03
2022-09-30T20:38:25.010Z,14.50
2022-09-30T20:40:28.240Z,14.73
2022-09-30T20:42:32.862Z,14.70
2022-09-30T20:44:36.324Z,14.97
2022-09-30T20:46:45.165Z,15.63
2022-09-30T20:48:48.328Z,14.93
2022-09-30T20:50:52.574Z,15.80
2022-09-30T20:52:55.834Z,15.20
2022-09-30T20:55:00.508Z,14.70
2022-09-30T20:57:08.057Z,14.53
2022-09-30T20:59:11.542Z,15.03
2022-09-30T21:01:18.389Z,14.67
2022-09-30T21:03:23.522Z,15.90
2022-09-30T21:05:31.170Z,16.10
2022-09-30T21:07:36.504Z,14.30
2022-09-30T21:09:42.811Z,15.80
2022-09-30T21:11:46.454Z,15.10
2022-09-30T21:13:50.513Z,16.33
2022-09-30T21:16:00.767Z,15.30
2022-09-30T21:18:03.628Z,16.30
2022-09-30T21:20:08.293Z,16.47
2022-09-30T21:22:11.280Z,15.03
2022-09-30T21:24:17.761Z,15.70
2022-09-30T21:26:20.922Z,16.30
2022-09-30T21:28:23.493Z,16.40
2022-09-30T21:30:28.954Z,16.13
2022-09-30T21:32:31.508Z,17.27
2022-09-30T21:34:34.082Z,15.03
2022-09-30T21:36:38.839Z,15.93
2022-09-30T21:38:41.357Z,15.70
2022-09-30T21:40:44.209Z,16.80
2022-09-30T21:42:48.231Z,15.40
2022-09-30T21:44:51.230Z,15.63
2022-09-30T21:46:54.267Z,16.30
2022-09-30T21:49:04.734Z,15.87
2022-09-30T21:51:07.391Z,15.60
2022-09-30T21:53:11.956Z,17.27
2022-09-30T21:55:15.297Z,16.23
2022-09-30T21:57:17.834Z,16.47
2022-09-30T21:59:20.322Z,15.80
2022-09-30T22:01:23.414Z,16.13
2022-09-30T22:03:25.931Z,17.80
2022-09-30T22:05:28.751Z,15.97
2022-09-30T22:07:33.047Z,17.20
2022-09-30T22:09:39.466Z,17.97
2022-09-30T22:11:44.222Z,17.00
2022-09-30T22:13:47.029Z,17.20
2022-09-30T22:15:50.134Z,16.50
2022-09-30T22:17:52.652Z,16.73
2022-09-30T22:19:58.175Z,17.43
2022-09-30T22:22:01.726Z,16.93
2022-09-30T22:24:05.086Z,16.37
2022-09-30T22:26:09.627Z,16.40
2022-09-30T22:28:12.383Z,17.07
2022-09-30T22:30:14.926Z,16.53
2022-09-30T22:32:17.927Z,17.90
2022-09-30T22:34:31.403Z,16.63
2022-09-30T22:36:47.799Z,17.33
2022-09-30T22:38:52.783Z,17.37
2022-09-30T22:40:56.298Z,16.80
2022-09-30T22:43:01.867Z,16.70
2022-09-30T22:45:04.888Z,17.00
2022-09-30T22:47:11.133Z,18.27
2022-09-30T22:49:14.101Z,17.10
2022-09-30T22:51:16.914Z,17.27
2022-09-30T22:53:19.395Z,17.83
2022-09-30T22:55:22.215Z,18.27
2022-09-30T22:57:25.030Z,16.30
2022-09-30T22:59:28.892Z,17.10
2022-09-30T23:01:36.898Z,17.17
2022-09-30T23:03:39.865Z,17.30
2022-09-30T23:05:42.366Z,17.00
2022-09-30T23:07:45.279Z,17.87
2022-09-30T23:09:47.712Z,17.40
2022-09-30T23:11:51.132Z,17.27
2022-09-30T23:13:58.840Z,16.60
2022-09-30T23:16:03.578Z,16.87
2022-09-30T23:18:06.516Z,16.33
2022-09-30T23:20:10.074Z,16.50
2022-09-30T23:22:13.327Z,16.97
2022-09-30T23:24:16.141Z,17.97
2022-09-30T23:26:19.030Z,16.30
2022-09-30T23:28:21.581Z,15.93
2022-09-30T23:30:24.742Z,16.07
2022-09-30T23:32:28.557Z,17.13
2022-09-30T23:34:31.058Z,16.90
2022-09-30T23:36:33.993Z,16.97
2022-09-30T23:38:36.972Z,16.90
2022-09-30T23:40:42.802Z,14.10
2022-09-30T23:42:45.291Z,16.43
2022-09-30T23:44:47.769Z,15.50
2022-09-30T23:47:01.643Z,16.23
2022-09-30T23:49:05.510Z,15.47
2022-09-30T23:51:08.136Z,16.33
2022-09-30T23:53:10.656Z,16.30
2022-09-30T23:55:13.130Z,15.67
2022-09-30T23:57:15.660Z,15.57
2022-09-30T23:59:18.423Z,16.27
